createdAt,value
2019-03-13T00:01:19.565Z,0.88
2019-03-13T00:03:23.883Z,1.30
2019-03-13T00:05:27.839Z,0.75
2019-03-13T00:07:31.989Z,0.33
2019-03-13T00:09:36.197Z,0.75
2019-03-13T00:11:40.512Z,0.60
2019-03-13T00:13:44.616Z,0.40
2019-03-13T00:15:49.950Z,0.45
2019-03-13T00:17:54.374Z,0.40
2019-03-13T00:19:58.504Z,0.50
2019-03-13T00:22:02.699Z,0.60
2019-03-13T00:24:06.518Z,1.10
2019-03-13T00:26:10.626Z,0.40
2019-03-13T00:28:14.741Z,0.40
2019-03-13T00:30:19.043Z,0.80
2019-03-13T00:32:23.180Z,0.40
2019-03-13T00:34:27.258Z,1.30
2019-03-13T00:36:33.417Z,0.60
2019-03-13T00:38:37.527Z,0.40
2019-03-13T00:40:41.664Z,0.98
2019-03-13T00:42:45.767Z,2.90
2019-03-13T00:44:49.879Z,1.15
2019-03-13T00:46:53.979Z,1.40
2019-03-13T00:48:57.801Z,0.60
2019-03-13T00:51:01.607Z,0.40
2019-03-13T00:53:05.420Z,0.65
2019-03-13T00:55:09.698Z,0.50
2019-03-13T00:57:13.806Z,1.40
2019-03-13T00:59:17.914Z,0.53
2019-03-13T01:01:23.772Z,0.50
2019-03-13T01:03:29.518Z,0.72
2019-03-13T01:05:43.994Z,0.33
2019-03-13T01:07:48.182Z,0.60
2019-03-13T01:09:52.296Z,0.70
2019-03-13T01:11:56.508Z,0.60
2019-03-13T01:14:00.620Z,0.50
2019-03-13T01:16:04.730Z,0.82
2019-03-13T01:18:08.547Z,0.80
2019-03-13T01:20:12.490Z,0.68
2019-03-13T01:22:16.134Z,0.82
2019-03-13T01:24:24.450Z,0.60
2019-03-13T01:26:28.255Z,0.50
2019-03-13T01:28:32.457Z,1.05
2019-03-13T01:30:54.274Z,1.67
2019-03-13T01:33:00.024Z,1.50
2019-03-13T01:35:08.538Z,0.80
2019-03-13T01:37:12.406Z,0.93
2019-03-13T01:39:16.227Z,0.70
2019-03-13T01:41:20.038Z,3.17
2019-03-13T01:43:24.950Z,1.75
2019-03-13T01:45:29.102Z,2.22
2019-03-13T01:47:33.206Z,0.80
2019-03-13T01:49:37.327Z,0.88
2019-03-13T01:51:43.684Z,2.45
2019-03-13T01:53:47.500Z,1.15
2019-03-13T01:55:51.699Z,1.15
2019-03-13T01:57:55.816Z,1.12
2019-03-13T01:59:59.932Z,1.62
2019-03-13T02:02:03.847Z,3.27
2019-03-13T02:04:08.042Z,1.55
2019-03-13T02:06:12.140Z,0.82
2019-03-13T02:08:16.257Z,2.65
2019-03-13T02:10:20.382Z,1.40
2019-03-13T02:12:24.276Z,1.20
2019-03-13T02:14:28.082Z,1.30
2019-03-13T02:16:32.192Z,2.33
2019-03-13T02:18:36.406Z,1.80
2019-03-13T02:20:40.498Z,1.95
2019-03-13T02:22:44.630Z,2.08
2019-03-13T02:24:48.834Z,1.62
2019-03-13T02:26:55.417Z,1.37
2019-03-13T02:28:59.625Z,1.17
2019-03-13T02:31:03.730Z,2.25
2019-03-13T02:33:07.929Z,1.22
2019-03-13T02:35:12.150Z,3.25
2019-03-13T02:37:16.250Z,1.45
2019-03-13T02:39:20.163Z,3.15
2019-03-13T02:41:23.956Z,1.10
2019-03-13T02:43:27.849Z,1.15
2019-03-13T02:45:31.682Z,1.37
2019-03-13T02:47:35.506Z,4.50
2019-03-13T02:49:41.924Z,2.45
2019-03-13T02:51:45.746Z,1.95
2019-03-13T02:53:49.578Z,1.87
2019-03-13T02:55:53.766Z,2.62
2019-03-13T02:57:57.872Z,3.60
2019-03-13T03:00:01.997Z,2.62
2019-03-13T03:02:10.590Z,1.52
2019-03-13T03:04:14.711Z,1.95
2019-03-13T03:06:18.817Z,4.20
2019-03-13T03:08:22.935Z,2.05
2019-03-13T03:10:26.776Z,2.85
2019-03-13T03:12:30.955Z,2.22
2019-03-13T03:14:35.147Z,2.25
2019-03-13T03:16:38.956Z,3.35
2019-03-13T03:18:43.060Z,4.95
2019-03-13T03:20:47.165Z,5.08
2019-03-13T03:22:51.297Z,7.53
2019-03-13T03:24:55.107Z,3.98
2019-03-13T03:26:58.946Z,4.53
2019-03-13T03:29:02.754Z,5.17
2019-03-13T03:31:07.039Z,4.80
2019-03-13T03:33:11.125Z,3.72
2019-03-13T03:35:15.337Z,4.87
2019-03-13T03:37:19.449Z,5.05
2019-03-13T03:39:23.562Z,4.42
2019-03-13T03:41:27.987Z,5.62
2019-03-13T03:43:39.994Z,6.50
2019-03-13T03:45:37.626Z,4.78
2019-03-13T03:47:41.866Z,5.33
2019-03-13T03:49:45.951Z,4.87
2019-03-13T03:51:50.067Z,7.30
2019-03-13T03:53:54.175Z,5.05
2019-03-13T03:55:58.403Z,5.22
2019-03-13T03:58:03.631Z,5.55
2019-03-13T04:00:10.833Z,8.30
2019-03-13T04:02:14.933Z,8.45
2019-03-13T04:04:19.027Z,4.95
2019-03-13T04:06:25.071Z,6.47
2019-03-13T04:08:28.889Z,5.60
2019-03-13T04:10:35.963Z,8.63
2019-03-13T04:12:40.073Z,6.95
2019-03-13T04:14:44.679Z,5.53
2019-03-13T04:16:48.818Z,6.47
2019-03-13T04:18:52.600Z,5.42
2019-03-13T04:20:56.416Z,5.33
2019-03-13T04:23:03.185Z,6.10
2019-03-13T04:25:22.153Z,5.97
2019-03-13T04:27:25.971Z,9.55
2019-03-13T04:29:30.152Z,6.22
2019-03-13T04:31:35.895Z,7.75
2019-03-13T04:33:40.002Z,5.67
2019-03-13T04:35:44.120Z,11.65
2019-03-13T04:37:48.243Z,6.90
2019-03-13T04:39:52.043Z,6.10
2019-03-13T04:41:56.144Z,7.28
2019-03-13T04:44:00.356Z,6.08
2019-03-13T04:46:04.168Z,5.53
2019-03-13T04:48:08.376Z,7.95
2019-03-13T04:50:15.770Z,7.53
2019-03-13T04:52:20.448Z,9.78
2019-03-13T04:54:24.274Z,7.97
2019-03-13T04:56:28.396Z,7.17
2019-03-13T04:58:32.616Z,6.40
2019-03-13T05:00:36.732Z,9.05
2019-03-13T05:02:40.832Z,7.67
2019-03-13T05:04:45.050Z,5.75
2019-03-13T05:06:48.862Z,10.23
2019-03-13T05:08:54.113Z,6.37
2019-03-13T05:10:57.811Z,9.40
2019-03-13T05:13:04.496Z,6.37
2019-03-13T05:15:08.654Z,6.30
2019-03-13T05:17:12.782Z,5.30
2019-03-13T05:19:16.984Z,6.35
2019-03-13T05:21:21.090Z,7.60
2019-03-13T05:23:25.214Z,6.35
2019-03-13T05:25:29.313Z,4.80
2019-03-13T05:27:33.436Z,5.35
2019-03-13T05:29:37.814Z,7.20
2019-03-13T05:31:41.954Z,5.35
2019-03-13T05:33:46.068Z,6.15
2019-03-13T05:35:50.178Z,6.70
2019-03-13T05:37:54.290Z,7.50
2019-03-13T05:39:58.394Z,6.30
2019-03-13T05:42:02.645Z,9.03
2019-03-13T05:44:09.665Z,10.38
2019-03-13T05:46:14.230Z,7.85
2019-03-13T05:48:18.427Z,8.93
2019-03-13T05:50:22.517Z,8.30
2019-03-13T05:52:26.645Z,6.58
2019-03-13T05:54:30.850Z,6.85
2019-03-13T05:56:34.972Z,6.45
2019-03-13T05:58:39.657Z,5.22
2019-03-13T06:00:43.796Z,4.53
2019-03-13T06:02:48.142Z,6.37
2019-03-13T06:04:52.323Z,5.75
2019-03-13T06:06:56.441Z,5.95
2019-03-13T06:09:03.315Z,6.05
2019-03-13T06:11:07.411Z,9.48
2019-03-13T06:13:11.538Z,5.40
2019-03-13T06:15:16.099Z,8.95
2019-03-13T06:17:20.264Z,8.65
2019-03-13T06:19:24.083Z,7.47
2019-03-13T06:21:28.279Z,8.60
2019-03-13T06:23:32.102Z,7.22
2019-03-13T06:25:38.034Z,8.73
2019-03-13T06:27:41.963Z,8.05
2019-03-13T06:29:46.058Z,6.30
2019-03-13T06:31:49.914Z,7.28
2019-03-13T06:33:54.071Z,9.50
2019-03-13T06:35:58.081Z,7.87
2019-03-13T06:38:02.312Z,4.80
2019-03-13T06:40:09.563Z,6.05
2019-03-13T06:42:13.697Z,10.20
2019-03-13T06:44:17.517Z,5.47
2019-03-13T06:46:21.666Z,9.95
2019-03-13T06:48:25.827Z,6.50
2019-03-13T06:50:29.931Z,6.30
2019-03-13T06:52:33.741Z,7.53
2019-03-13T06:54:37.936Z,12.68
2019-03-13T06:56:42.060Z,10.90
2019-03-13T06:58:47.514Z,7.70
2019-03-13T07:00:59.072Z,9.38
2019-03-13T07:03:17.205Z,9.53
2019-03-13T07:05:23.076Z,5.25
2019-03-13T07:07:28.922Z,5.35
2019-03-13T07:09:39.588Z,9.28
2019-03-13T07:11:47.892Z,11.40
2019-03-13T07:14:04.848Z,8.68
2019-03-13T07:16:26.937Z,14.78
2019-03-13T07:18:35.764Z,12.18
2019-03-13T07:20:57.886Z,8.30
2019-03-13T07:23:05.988Z,5.03
2019-03-13T07:25:21.052Z,9.40
2019-03-13T07:27:43.084Z,10.05
2019-03-13T07:29:51.603Z,6.45
2019-03-13T07:31:57.450Z,8.53
2019-03-13T07:34:03.203Z,8.60
2019-03-13T07:36:08.647Z,6.05
2019-03-13T07:38:32.367Z,11.35
2019-03-13T07:40:44.792Z,5.95
2019-03-13T07:42:52.667Z,5.35
2019-03-13T07:45:13.551Z,6.97
2019-03-13T07:47:34.119Z,9.98
2019-03-13T07:49:55.941Z,6.42
2019-03-13T07:52:17.851Z,8.98
2019-03-13T07:54:32.620Z,6.90
2019-03-13T07:56:57.701Z,6.08
2019-03-13T07:59:15.483Z,10.43
2019-03-13T08:01:24.269Z,5.70
2019-03-13T08:03:46.041Z,10.25
2019-03-13T08:05:57.115Z,10.48
2019-03-13T08:08:08.449Z,7.15
2019-03-13T08:10:14.307Z,7.20
2019-03-13T08:12:36.489Z,6.95
2019-03-13T08:14:54.578Z,8.93
2019-03-13T08:17:12.711Z,7.12
2019-03-13T08:19:34.565Z,7.60
2019-03-13T08:21:45.611Z,7.35
2019-03-13T08:23:51.083Z,9.13
2019-03-13T08:26:02.405Z,9.18
2019-03-13T08:28:16.995Z,10.82
2019-03-13T08:30:39.218Z,5.42
2019-03-13T08:32:44.677Z,8.40
2019-03-13T08:35:06.812Z,13.50
2019-03-13T08:37:19.721Z,7.20
2019-03-13T08:39:25.178Z,7.40
2019-03-13T08:41:42.780Z,5.40
2019-03-13T08:43:50.931Z,9.48
2019-03-13T08:45:56.741Z,6.30
2019-03-13T08:48:02.593Z,5.90
2019-03-13T08:50:31.295Z,8.05
2019-03-13T08:52:37.137Z,7.33
2019-03-13T08:54:42.985Z,10.05
2019-03-13T08:56:57.231Z,4.72
2019-03-13T08:59:04.517Z,8.95
2019-03-13T09:01:15.466Z,6.08
2019-03-13T09:03:21.567Z,7.72
2019-03-13T09:05:36.396Z,7.78
2019-03-13T09:07:42.147Z,6.05
2019-03-13T09:09:47.623Z,10.63
2019-03-13T09:11:53.330Z,9.95
2019-03-13T09:14:13.785Z,10.68
2019-03-13T09:16:19.872Z,10.10
2019-03-13T09:18:28.955Z,8.65
2019-03-13T09:20:52.356Z,6.70
2019-03-13T09:23:01.833Z,7.67
2019-03-13T09:25:12.474Z,8.98
2019-03-13T09:27:32.175Z,10.28
2019-03-13T09:29:52.631Z,7.08
2019-03-13T09:32:10.183Z,7.75
2019-03-13T09:34:21.467Z,8.43
2019-03-13T09:36:29.751Z,11.00
2019-03-13T09:38:47.801Z,11.25
2019-03-13T09:40:59.275Z,10.35
2019-03-13T09:43:07.623Z,9.95
2019-03-13T09:45:29.635Z,7.83
2019-03-13T09:47:38.047Z,9.35
2019-03-13T09:49:45.415Z,16.15
2019-03-13T09:52:07.151Z,6.03
2019-03-13T09:54:12.996Z,11.68
2019-03-13T09:56:25.084Z,11.38
2019-03-13T09:58:42.930Z,9.43
2019-03-13T10:01:04.141Z,9.85
2019-03-13T10:03:09.592Z,9.45
2019-03-13T10:05:15.631Z,10.58
2019-03-13T10:07:21.385Z,9.75
2019-03-13T10:09:35.939Z,6.45
2019-03-13T10:11:41.421Z,11.60
2019-03-13T10:13:49.821Z,8.63
2019-03-13T10:15:55.632Z,10.20
2019-03-13T10:18:06.929Z,7.47
2019-03-13T10:20:29.044Z,10.35
2019-03-13T10:22:41.042Z,10.28
2019-03-13T10:24:52.594Z,7.50
2019-03-13T10:27:13.979Z,8.15
2019-03-13T10:29:28.428Z,8.48
2019-03-13T10:31:46.710Z,10.35
2019-03-13T10:33:52.800Z,9.55
2019-03-13T10:36:10.420Z,8.93
2019-03-13T10:38:34.516Z,9.05
2019-03-13T10:40:42.930Z,7.72
2019-03-13T10:42:51.531Z,10.50
2019-03-13T10:44:59.676Z,9.33
2019-03-13T10:47:11.415Z,11.35
2019-03-13T10:49:21.484Z,10.03
2019-03-13T10:51:30.092Z,17.62
2019-03-13T10:53:42.086Z,7.62
2019-03-13T10:55:55.192Z,5.70
2019-03-13T10:58:03.914Z,10.53
2019-03-13T11:00:24.416Z,9.08
2019-03-13T11:02:33.028Z,10.23
2019-03-13T11:04:44.740Z,7.47
2019-03-13T11:06:55.256Z,12.18
2019-03-13T11:09:16.658Z,13.35
2019-03-13T11:11:38.312Z,8.65
2019-03-13T11:13:44.168Z,9.43
2019-03-13T11:16:05.871Z,12.45
2019-03-13T11:18:11.639Z,12.80
2019-03-13T11:20:33.786Z,9.08
2019-03-13T11:22:58.162Z,10.35
2019-03-13T11:25:19.773Z,11.20
2019-03-13T11:27:43.958Z,9.15
2019-03-13T11:29:55.650Z,11.75
2019-03-13T11:32:13.484Z,5.53
2019-03-13T11:34:20.142Z,10.90
2019-03-13T11:36:42.244Z,6.42
2019-03-13T11:38:48.028Z,10.28
2019-03-13T11:40:53.945Z,6.50
2019-03-13T11:43:08.440Z,10.55
2019-03-13T11:45:14.051Z,10.30
2019-03-13T11:47:19.828Z,10.20
2019-03-13T11:49:43.819Z,10.00
2019-03-13T11:51:58.254Z,16.23
2019-03-13T11:54:20.174Z,10.95
2019-03-13T11:56:35.634Z,12.95
2019-03-13T11:58:47.364Z,10.05
2019-03-13T12:01:01.615Z,11.17
2019-03-13T12:03:07.455Z,11.97
2019-03-13T12:05:21.001Z,9.30
2019-03-13T12:07:35.686Z,9.58
2019-03-13T12:09:59.303Z,10.25
2019-03-13T12:12:16.942Z,14.40
2019-03-13T12:14:38.976Z,11.20
2019-03-13T12:16:47.791Z,12.20
2019-03-13T12:19:02.567Z,12.30
2019-03-13T12:21:14.141Z,12.63
2019-03-13T12:23:22.646Z,11.83
2019-03-13T12:25:43.548Z,11.15
2019-03-13T12:27:52.792Z,12.03
2019-03-13T12:30:14.913Z,15.83
2019-03-13T12:32:26.917Z,13.78
2019-03-13T12:34:32.378Z,12.93
2019-03-13T12:36:47.098Z,13.40
2019-03-13T12:39:01.984Z,11.28
2019-03-13T12:41:07.724Z,13.43
2019-03-13T12:43:30.164Z,9.10
2019-03-13T12:45:38.988Z,14.87
2019-03-13T12:47:50.027Z,9.45
2019-03-13T12:49:55.804Z,8.80
2019-03-13T12:52:07.294Z,8.78
2019-03-13T12:54:29.114Z,11.25
2019-03-13T12:56:50.150Z,7.53
2019-03-13T12:59:08.056Z,9.88
2019-03-13T13:01:16.780Z,5.70
2019-03-13T13:03:41.378Z,8.35
2019-03-13T13:06:03.317Z,9.85
2019-03-13T13:08:09.154Z,8.55
2019-03-13T13:10:26.166Z,11.78
2019-03-13T13:12:31.682Z,7.62
2019-03-13T13:14:41.768Z,13.50
2019-03-13T13:16:49.927Z,4.22
2019-03-13T13:18:54.070Z,6.00
2019-03-13T13:20:58.182Z,7.92
2019-03-13T13:23:02.296Z,7.87
2019-03-13T13:25:09.266Z,9.53
2019-03-13T13:27:13.472Z,9.08
2019-03-13T13:29:17.282Z,4.75
2019-03-13T13:31:21.487Z,8.50
2019-03-13T13:33:25.602Z,6.97
2019-03-13T13:35:29.705Z,9.10
2019-03-13T13:37:33.924Z,9.83
2019-03-13T13:39:37.732Z,5.80
2019-03-13T13:41:41.931Z,7.08
2019-03-13T13:43:45.776Z,6.67
2019-03-13T13:45:53.141Z,7.72
2019-03-13T13:47:57.236Z,9.53
2019-03-13T13:50:03.195Z,10.43
2019-03-13T13:52:07.415Z,5.78
2019-03-13T13:54:11.248Z,8.83
2019-03-13T13:56:15.424Z,8.25
2019-03-13T13:58:19.529Z,10.90
2019-03-13T14:00:23.362Z,6.35
2019-03-13T14:02:27.556Z,7.35
2019-03-13T14:04:31.758Z,8.58
2019-03-13T14:06:35.868Z,8.78
2019-03-13T14:08:39.972Z,12.93
2019-03-13T14:10:43.799Z,7.87
2019-03-13T14:12:47.600Z,6.22
2019-03-13T14:14:51.796Z,9.28
2019-03-13T14:16:55.912Z,6.92
2019-03-13T14:19:00.010Z,5.92
2019-03-13T14:21:04.762Z,7.78
2019-03-13T14:23:08.957Z,7.60
2019-03-13T14:25:14.467Z,5.78
2019-03-13T14:27:20.018Z,10.45
2019-03-13T14:29:24.144Z,10.30
2019-03-13T14:31:28.268Z,12.03
2019-03-13T14:33:32.376Z,7.37
2019-03-13T14:35:36.591Z,7.75
2019-03-13T14:37:40.712Z,11.93
2019-03-13T14:39:44.906Z,8.70
2019-03-13T14:41:49.018Z,7.65
2019-03-13T14:43:53.233Z,13.85
2019-03-13T14:45:57.327Z,12.43
2019-03-13T14:48:01.450Z,11.20
2019-03-13T14:50:08.356Z,11.28
2019-03-13T14:52:12.462Z,8.58
2019-03-13T14:54:16.667Z,8.43
2019-03-13T14:56:20.884Z,10.03
2019-03-13T14:58:25.074Z,9.73
2019-03-13T15:00:28.971Z,15.55
2019-03-13T15:02:33.085Z,7.30
2019-03-13T15:04:37.208Z,11.88
2019-03-13T15:06:41.142Z,9.50
2019-03-13T15:08:45.009Z,10.82
2019-03-13T15:10:48.930Z,9.40
2019-03-13T15:12:53.044Z,10.70
2019-03-13T15:14:56.860Z,10.98
2019-03-13T15:17:00.683Z,8.90
2019-03-13T15:19:04.847Z,7.30
2019-03-13T15:21:09.054Z,7.22
2019-03-13T15:23:13.188Z,11.53
2019-03-13T15:25:17.423Z,9.38
2019-03-13T15:27:21.503Z,11.83
2019-03-13T15:29:25.346Z,13.65
2019-03-13T15:31:29.535Z,7.70
2019-03-13T15:33:33.388Z,11.12
2019-03-13T15:35:37.514Z,10.53
2019-03-13T15:37:43.202Z,8.35
2019-03-13T15:39:46.956Z,9.48
2019-03-13T15:41:50.776Z,15.13
2019-03-13T15:43:54.998Z,14.15
2019-03-13T15:45:59.199Z,12.85
2019-03-13T15:48:03.478Z,13.03
2019-03-13T15:50:10.697Z,14.53
2019-03-13T15:52:14.537Z,14.38
2019-03-13T15:54:18.713Z,14.10
2019-03-13T15:56:22.886Z,8.83
2019-03-13T15:58:27.075Z,15.53
2019-03-13T16:00:31.767Z,12.13
2019-03-13T16:02:36.001Z,12.25
2019-03-13T16:04:39.808Z,9.05
2019-03-13T16:06:43.981Z,12.40
2019-03-13T16:08:48.085Z,10.53
2019-03-13T16:10:52.304Z,11.68
2019-03-13T16:12:58.152Z,8.85
2019-03-13T16:15:02.294Z,11.90
2019-03-13T16:17:06.494Z,10.65
2019-03-13T16:19:11.966Z,14.15
2019-03-13T16:21:15.830Z,11.75
2019-03-13T16:23:19.753Z,12.43
2019-03-13T16:25:25.605Z,9.00
2019-03-13T16:27:29.793Z,10.90
2019-03-13T16:29:33.631Z,11.57
2019-03-13T16:31:38.635Z,10.13
2019-03-13T16:33:43.659Z,9.48
2019-03-13T16:35:47.902Z,13.00
2019-03-13T16:37:52.115Z,8.30
2019-03-13T16:39:56.317Z,8.38
2019-03-13T16:42:02.113Z,15.90
2019-03-13T16:44:06.259Z,9.25
2019-03-13T16:46:10.181Z,12.85
2019-03-13T16:48:14.292Z,11.63
2019-03-13T16:50:29.173Z,11.45
2019-03-13T16:52:33.360Z,7.62
2019-03-13T16:54:37.460Z,8.90
2019-03-13T16:56:41.575Z,9.83
2019-03-13T16:58:45.697Z,6.87
2019-03-13T17:00:50.750Z,7.67
2019-03-13T17:02:55.337Z,5.90
2019-03-13T17:04:59.477Z,10.28
2019-03-13T17:07:03.678Z,12.20
2019-03-13T17:09:07.561Z,8.48
2019-03-13T17:11:11.793Z,8.75
2019-03-13T17:13:15.888Z,8.00
2019-03-13T17:15:21.816Z,10.15
2019-03-13T17:17:25.958Z,7.47
2019-03-13T17:19:31.413Z,9.38
2019-03-13T17:21:35.803Z,11.88
2019-03-13T17:23:39.639Z,8.95
2019-03-13T17:25:43.817Z,9.83
2019-03-13T17:27:48.289Z,12.65
2019-03-13T17:29:52.452Z,11.38
2019-03-13T17:31:56.671Z,7.28
2019-03-13T17:34:00.895Z,6.72
2019-03-13T17:36:05.095Z,9.98
2019-03-13T17:38:08.907Z,6.22
2019-03-13T17:40:15.988Z,8.70
2019-03-13T17:42:20.086Z,5.78
2019-03-13T17:44:24.195Z,6.10
2019-03-13T17:46:28.065Z,9.03
2019-03-13T17:48:32.164Z,8.13
2019-03-13T17:50:36.089Z,7.08
2019-03-13T17:52:39.958Z,5.40
2019-03-13T17:54:44.123Z,7.80
2019-03-13T17:56:48.237Z,7.83
2019-03-13T17:58:52.357Z,5.42
2019-03-13T18:00:57.150Z,6.58
2019-03-13T18:03:01.297Z,4.30
2019-03-13T18:05:09.223Z,8.00
2019-03-13T18:07:13.403Z,6.65
2019-03-13T18:09:17.216Z,7.40
2019-03-13T18:11:22.990Z,9.45
2019-03-13T18:13:27.273Z,7.83
2019-03-13T18:15:31.513Z,9.23
2019-03-13T18:17:35.317Z,6.33
2019-03-13T18:19:39.493Z,6.55
2019-03-13T18:21:43.577Z,8.50
2019-03-13T18:23:47.714Z,6.62
2019-03-13T18:25:53.165Z,5.83
2019-03-13T18:27:58.877Z,5.58
2019-03-13T18:30:03.224Z,9.50
2019-03-13T18:32:09.549Z,7.15
2019-03-13T18:34:14.342Z,8.45
2019-03-13T18:36:18.168Z,8.28
2019-03-13T18:38:22.333Z,9.55
2019-03-13T18:40:26.952Z,12.63
2019-03-13T18:42:31.065Z,10.80
2019-03-13T18:44:37.850Z,11.10
2019-03-13T18:46:41.133Z,9.83
2019-03-13T18:48:45.243Z,11.85
2019-03-13T18:50:49.453Z,11.20
2019-03-13T18:52:53.345Z,10.95
2019-03-13T18:54:58.995Z,10.40
2019-03-13T18:57:05.435Z,7.95
2019-03-13T18:59:09.577Z,10.82
2019-03-13T19:01:13.800Z,14.68
2019-03-13T19:03:18.003Z,17.32
2019-03-13T19:05:22.281Z,17.30
2019-03-13T19:07:26.436Z,11.43
2019-03-13T19:09:30.639Z,12.10
2019-03-13T19:11:34.867Z,8.98
2019-03-13T19:13:39.055Z,9.18
2019-03-13T19:15:42.863Z,8.28
2019-03-13T19:17:46.971Z,7.60
2019-03-13T19:19:51.189Z,9.60
2019-03-13T19:21:55.298Z,10.80
2019-03-13T19:24:02.318Z,8.15
2019-03-13T19:26:05.059Z,10.50
2019-03-13T19:28:08.900Z,10.38
2019-03-13T19:30:33.343Z,12.45
2019-03-13T19:32:37.550Z,10.35
2019-03-13T19:34:41.670Z,10.82
2019-03-13T19:36:45.589Z,10.90
2019-03-13T19:38:49.693Z,9.33
2019-03-13T19:40:53.896Z,10.35
2019-03-13T19:42:59.523Z,8.85
2019-03-13T19:45:04.163Z,8.68
2019-03-13T19:47:08.283Z,7.20
2019-03-13T19:49:12.502Z,7.05
2019-03-13T19:51:16.706Z,8.08
2019-03-13T19:53:20.830Z,6.08
2019-03-13T19:55:24.732Z,11.38
2019-03-13T19:57:30.462Z,13.40
2019-03-13T19:59:36.862Z,5.37
2019-03-13T20:01:40.126Z,7.15
2019-03-13T20:03:54.702Z,7.15
2019-03-13T20:05:50.179Z,8.10
2019-03-13T20:07:54.295Z,4.80
2019-03-13T20:09:58.614Z,6.95
2019-03-13T20:12:02.430Z,5.55
2019-03-13T20:14:06.636Z,5.72
2019-03-13T20:16:12.259Z,4.55
2019-03-13T20:18:16.384Z,4.33
2019-03-13T20:20:22.319Z,5.83
2019-03-13T20:22:26.438Z,4.22
2019-03-13T20:24:30.242Z,5.03
2019-03-13T20:26:36.094Z,3.98
2019-03-13T20:28:40.200Z,3.22
2019-03-13T20:30:44.171Z,10.03
2019-03-13T20:32:48.336Z,2.08
2019-03-13T20:34:52.642Z,4.42
2019-03-13T20:36:58.723Z,3.17
2019-03-13T20:39:02.802Z,0.95
2019-03-13T20:41:07.008Z,2.87
2019-03-13T20:43:11.230Z,2.40
2019-03-13T20:45:18.160Z,4.62
2019-03-13T20:47:21.982Z,5.28
2019-03-13T20:49:25.784Z,5.53
2019-03-13T20:51:30.014Z,2.93
2019-03-13T20:53:34.130Z,4.42
2019-03-13T20:55:38.348Z,3.05
2019-03-13T20:57:42.552Z,2.65
2019-03-13T20:59:46.674Z,5.50
2019-03-13T21:01:50.769Z,4.67
2019-03-13T21:03:54.996Z,5.17
2019-03-13T21:06:00.814Z,4.62
2019-03-13T21:08:04.842Z,3.75
2019-03-13T21:10:10.811Z,3.45
2019-03-13T21:12:14.926Z,3.67
2019-03-13T21:14:19.017Z,4.25
2019-03-13T21:16:24.476Z,4.20
2019-03-13T21:18:28.678Z,3.12
2019-03-13T21:20:32.828Z,6.12
2019-03-13T21:22:37.010Z,2.85
2019-03-13T21:24:41.832Z,5.00
2019-03-13T21:26:49.104Z,6.58
2019-03-13T21:28:51.788Z,4.67
2019-03-13T21:30:55.917Z,8.30
2019-03-13T21:33:00.010Z,4.42
2019-03-13T21:35:04.326Z,3.15
2019-03-13T21:37:08.212Z,9.65
2019-03-13T21:39:15.496Z,4.80
2019-03-13T21:41:22.106Z,2.92
2019-03-13T21:43:25.916Z,5.60
2019-03-13T21:45:40.334Z,4.67
2019-03-13T21:47:35.958Z,4.70
2019-03-13T21:49:40.087Z,2.83
2019-03-13T21:51:43.916Z,2.77
2019-03-13T21:53:52.276Z,4.03
2019-03-13T21:55:58.593Z,3.45
2019-03-13T21:58:02.746Z,4.17
2019-03-13T22:00:12.785Z,4.35
2019-03-13T22:02:16.916Z,3.92
2019-03-13T22:04:24.441Z,5.62
2019-03-13T22:06:29.081Z,4.92
2019-03-13T22:08:33.418Z,6.03
2019-03-13T22:10:37.545Z,4.10
2019-03-13T22:12:41.646Z,4.00
2019-03-13T22:14:45.871Z,5.50
2019-03-13T22:16:49.973Z,7.87
2019-03-13T22:18:54.086Z,6.25
2019-03-13T22:20:58.195Z,3.72
2019-03-13T22:23:02.308Z,4.28
2019-03-13T22:25:11.020Z,4.75
2019-03-13T22:27:15.437Z,4.25
2019-03-13T22:29:19.666Z,8.38
2019-03-13T22:31:23.766Z,8.60
2019-03-13T22:33:30.458Z,5.50
2019-03-13T22:35:34.650Z,8.50
2019-03-13T22:37:38.536Z,5.75
2019-03-13T22:39:42.348Z,7.37
2019-03-13T22:41:46.472Z,8.20
2019-03-13T22:43:50.613Z,7.30
2019-03-13T22:45:54.803Z,8.90
2019-03-13T22:47:58.891Z,8.28
2019-03-13T22:50:05.038Z,7.05
2019-03-13T22:52:09.274Z,8.75
2019-03-13T22:54:15.092Z,9.60
2019-03-13T22:56:18.900Z,6.62
2019-03-13T22:58:24.742Z,10.20
2019-03-13T23:00:54.004Z,8.00
2019-03-13T23:02:58.183Z,7.60
2019-03-13T23:05:03.936Z,9.18
2019-03-13T23:07:07.951Z,8.38
2019-03-13T23:09:12.822Z,9.03
2019-03-13T23:11:16.709Z,7.60
2019-03-13T23:13:20.899Z,8.78
2019-03-13T23:15:25.097Z,14.90
2019-03-13T23:17:29.314Z,13.32
2019-03-13T23:19:34.114Z,13.00
2019-03-13T23:21:38.263Z,11.68
2019-03-13T23:23:42.374Z,9.60
2019-03-13T23:25:46.199Z,7.28
2019-03-13T23:27:50.029Z,9.30
2019-03-13T23:29:54.192Z,11.88
2019-03-13T23:31:58.395Z,10.18
2019-03-13T23:34:02.624Z,10.35
2019-03-13T23:36:06.936Z,16.82
2019-03-13T23:38:11.338Z,12.07
2019-03-13T23:40:15.723Z,8.40
2019-03-13T23:42:22.010Z,15.30
2019-03-13T23:44:25.842Z,11.63
2019-03-13T23:46:30.030Z,14.10
2019-03-13T23:48:34.139Z,9.40
2019-03-13T23:50:38.250Z,10.40
2019-03-13T23:52:42.475Z,8.95
2019-03-13T23:54:46.300Z,11.43
2019-03-13T23:56:50.482Z,16.05
2019-03-13T23:58:54.684Z,14.75
